Bookmark and Share
Track history (hours):
 

M/V Crosby Hustler

More information available from US FCC via Universal Licensing System and Coast Guard Vessel Documentation Center.

Last reported at 2014-Apr-09 13:07 UTC. Time now 2014-Apr-17 04:04 UTC.
Position N 29°14' W 095°02'.

Length 18 m; draft 9 m.

Type: Tug. MMSI: 366804030.

NotesDate/timePositionNaut miles runAvg speedWind from/ knotsBaromVisibWave heightAir tempDewpointWater temp
2014-Apr-09 13:07N 29°14' W 095°02'18 4.0
2014-Apr-09 08:33N 29°30' W 094°52'6 5.5
2014-Apr-09 07:33N 29°35' W 094°56'6 5.9
2014-Apr-09 06:33N 29°40' W 094°59'6 5.8
2014-Apr-09 05:32N 29°44' W 095°03'3 0.4
2014-Apr-08 22:29N 29°47' W 095°05'0 0.0
2014-Apr-08 20:32N 29°47' W 095°05'1 0.1
2014-Apr-08 12:33N 29°48' W 095°04'0 0.0
2014-Apr-08 11:33N 29°48' W 095°04'0 0.0
2014-Apr-08 04:30N 29°48' W 095°04'0 0.0
2014-Apr-07 21:17N 29°48' W 095°04'0 0.0
2014-Apr-07 20:32N 29°48' W 095°04'0 0.0
2014-Apr-07 19:14N 29°48' W 095°04'0 0.0
2014-Apr-07 17:10N 29°48' W 095°04'1 0.3
2014-Apr-07 12:33N 29°46' W 095°05'7 0.4
2014-Apr-06 21:14N 29°45' W 095°12'1 0.0
2014-Apr-05 21:18N 29°45' W 095°11'3 3.5
2014-Apr-05 20:30N 29°44' W 095°08'3 2.8
2014-Apr-05 19:33N 29°46' W 095°06'1 0.2
2014-Apr-05 16:10N 29°47' W 095°06'0 0.0
2014-Apr-05 15:33N 29°47' W 095°06'0 0.0
2014-Apr-05 14:33N 29°47' W 095°06'0 0.0
2014-Apr-05 13:03N 29°47' W 095°06'0 0.0
2014-Apr-04 23:03N 29°47' W 095°06'0 0.0
2014-Apr-04 20:18N 29°47' W 095°06'0 0.0
2014-Apr-04 19:27N 29°47' W 095°06'0 0.0
2014-Apr-04 17:30N 29°47' W 095°06'0 0.0
2014-Apr-04 16:31N 29°47' W 095°06'0 0.0
2014-Apr-04 07:15N 29°47' W 095°06'0 0.0
2014-Apr-04 00:27N 29°47' W 095°06'0 0.0
2014-Apr-03 23:33N 29°47' W 095°06'0 0.0
2014-Apr-03 22:33N 29°47' W 095°06'0 0.0
2014-Apr-03 21:33N 29°47' W 095°06'0 0.0
2014-Apr-03 20:30N 29°47' W 095°06'0 0.0
2014-Apr-03 07:21N 29°47' W 095°06'0 0.0
2014-Apr-03 06:21N 29°47' W 095°06'0 0.0
2014-Apr-03 05:33N 29°47' W 095°06'0 0.0
2014-Apr-02 23:33N 29°47' W 095°06'0 0.0
2014-Apr-02 22:12N 29°47' W 095°06'1 0.7
2014-Apr-02 21:27N 29°46' W 095°06'0 0.2
2014-Apr-02 19:28N 29°46' W 095°06'2 0.6
2014-Apr-02 16:31N 29°45' W 095°04'5 5.2
2014-Apr-02 15:33N 29°42' W 094°60'5 5.3
2014-Apr-02 14:33N 29°37' W 094°57'4 3.9
2014-Apr-02 13:33N 29°34' W 094°55'6 5.9
2014-Apr-02 12:33N 29°29' W 094°51'  

Dump ship's entire track history

sailing weather and tide predictions

M/V Crosby Hustler — WDA3941 — position and weather